sensor_id;sensor_type;location;lat;lon;timestamp;temperature;humidity
27224;DHT22;14965;50.660;13.226;2023-04-03T00:00:28;1.00;99.90
27224;DHT22;14965;50.660;13.226;2023-04-03T00:02:55;0.90;99.90
27224;DHT22;14965;50.660;13.226;2023-04-03T00:05:21;0.80;99.90
27224;DHT22;14965;50.660;13.226;2023-04-03T00:07:48;0.80;99.90
27224;DHT22;14965;50.660;13.226;2023-04-03T00:10:14;0.80;99.90
27224;DHT22;14965;50.660;13.226;2023-04-03T00:12:40;0.70;99.90
27224;DHT22;14965;50.660;13.226;2023-04-03T00:15:06;0.70;99.90
27224;DHT22;14965;50.660;13.226;2023-04-03T00:17:32;0.60;99.90
27224;DHT22;14965;50.660;13.226;2023-04-03T00:19:58;0.70;99.90
27224;DHT22;14965;50.660;13.226;2023-04-03T00:22:24;0.70;99.90
27224;DHT22;14965;50.660;13.226;2023-04-03T00:24:51;0.70;99.90
27224;DHT22;14965;50.660;13.226;2023-04-03T00:27:17;0.70;99.90
27224;DHT22;14965;50.660;13.226;2023-04-03T00:29:43;0.70;99.90
27224;DHT22;14965;50.660;13.226;2023-04-03T00:32:09;0.60;99.90
27224;DHT22;14965;50.660;13.226;2023-04-03T00:34:35;0.60;99.90
27224;DHT22;14965;50.660;13.226;2023-04-03T00:37:00;0.60;99.90
27224;DHT22;14965;50.660;13.226;2023-04-03T00:39:26;0.60;99.90
27224;DHT22;14965;50.660;13.226;2023-04-03T00:41:53;0.50;99.90
27224;DHT22;14965;50.660;13.226;2023-04-03T00:44:20;0.50;99.90
27224;DHT22;14965;50.660;13.226;2023-04-03T00:46:47;0.50;99.90
27224;DHT22;14965;50.660;13.226;2023-04-03T00:49:12;0.50;99.90
27224;DHT22;14965;50.660;13.226;2023-04-03T00:51:38;0.50;99.90
27224;DHT22;14965;50.660;13.226;2023-04-03T00:54:05;0.50;99.90
27224;DHT22;14965;50.660;13.226;2023-04-03T00:56:33;0.50;99.90
27224;DHT22;14965;50.660;13.226;2023-04-03T00:59:04;0.50;99.90
27224;DHT22;14965;50.660;13.226;2023-04-03T01:01:33;0.60;99.90
27224;DHT22;14965;50.660;13.226;2023-04-03T01:03:59;0.50;99.90
27224;DHT22;14965;50.660;13.226;2023-04-03T01:06:27;0.50;99.90
27224;DHT22;14965;50.660;13.226;2023-04-03T01:08:54;0.40;99.90
27224;DHT22;14965;50.660;13.226;2023-04-03T01:11:21;0.30;99.90
27224;DHT22;14965;50.660;13.226;2023-04-03T01:13:46;0.40;99.90
27224;DHT22;14965;50.660;13.226;2023-04-03T01:16:14;0.30;99.90
27224;DHT22;14965;50.660;13.226;2023-04-03T01:18:40;0.30;99.90
27224;DHT22;14965;50.660;13.226;2023-04-03T01:24:17;0.30;99.90
27224;DHT22;14965;50.660;13.226;2023-04-03T01:26:49;0.30;99.90
27224;DHT22;14965;50.660;13.226;2023-04-03T01:29:15;0.30;99.90
27224;DHT22;14965;50.660;13.226;2023-04-03T01:31:55;0.30;99.90
27224;DHT22;14965;50.660;13.226;2023-04-03T01:34:22;0.30;99.90
27224;DHT22;14965;50.660;13.226;2023-04-03T01:36:49;0.30;99.90
27224;DHT22;14965;50.660;13.226;2023-04-03T01:39:15;0.20;99.90
27224;DHT22;14965;50.660;13.226;2023-04-03T01:41:41;0.20;99.90
27224;DHT22;14965;50.660;13.226;2023-04-03T01:44:08;0.20;99.90
27224;DHT22;14965;50.660;13.226;2023-04-03T01:46:33;0.20;99.90
27224;DHT22;14965;50.660;13.226;2023-04-03T01:49:01;0.20;99.90
27224;DHT22;14965;50.660;13.226;2023-04-03T01:51:27;0.20;99.90
27224;DHT22;14965;50.660;13.226;2023-04-03T01:53:53;0.20;99.90
27224;DHT22;14965;50.660;13.226;2023-04-03T01:56:19;0.30;99.90
27224;DHT22;14965;50.660;13.226;2023-04-03T01:58:45;0.20;99.90
27224;DHT22;14965;50.660;13.226;2023-04-03T02:01:11;0.20;99.90
27224;DHT22;14965;50.660;13.226;2023-04-03T02:03:36;0.20;99.90
27224;DHT22;14965;50.660;13.226;2023-04-03T02:06:04;0.10;99.90
27224;DHT22;14965;50.660;13.226;2023-04-03T02:08:30;0.10;99.90
27224;DHT22;14965;50.660;13.226;2023-04-03T02:10:55;0.10;99.90
27224;DHT22;14965;50.660;13.226;2023-04-03T02:13:21;0.10;99.90
27224;DHT22;14965;50.660;13.226;2023-04-03T02:15:47;0.10;99.90
27224;DHT22;14965;50.660;13.226;2023-04-03T02:18:13;0.10;99.90
27224;DHT22;14965;50.660;13.226;2023-04-03T02:20:39;0.00;99.90
27224;DHT22;14965;50.660;13.226;2023-04-03T02:23:06;0.00;99.90
27224;DHT22;14965;50.660;13.226;2023-04-03T02:25:32;-0.10;99.90
27224;DHT22;14965;50.660;13.226;2023-04-03T02:27:58;-0.10;99.90
27224;DHT22;14965;50.660;13.226;2023-04-03T02:30:24;-0.10;99.90
27224;DHT22;14965;50.660;13.226;2023-04-03T02:32:50;-0.10;99.90
27224;DHT22;14965;50.660;13.226;2023-04-03T02:35:16;-0.10;99.90
27224;DHT22;14965;50.660;13.226;2023-04-03T02:37:42;-0.10;99.90
27224;DHT22;14965;50.660;13.226;2023-04-03T02:40:10;-0.10;99.90
27224;DHT22;14965;50.660;13.226;2023-04-03T02:42:36;-0.10;99.90
27224;DHT22;14965;50.660;13.226;2023-04-03T02:45:01;-0.10;99.90
27224;DHT22;14965;50.660;13.226;2023-04-03T02:47:28;-0.10;99.90
27224;DHT22;14965;50.660;13.226;2023-04-03T02:49:54;-0.20;99.90
27224;DHT22;14965;50.660;13.226;2023-04-03T02:52:20;-0.30;99.90
27224;DHT22;14965;50.660;13.226;2023-04-03T02:54:46;-0.30;99.90
27224;DHT22;14965;50.660;13.226;2023-04-03T02:57:13;-0.30;99.90
27224;DHT22;14965;50.660;13.226;2023-04-03T02:59:39;-0.30;99.90
27224;DHT22;14965;50.660;13.226;2023-04-03T03:02:05;-0.30;99.90
27224;DHT22;14965;50.660;13.226;2023-04-03T03:04:31;-0.40;99.90
27224;DHT22;14965;50.660;13.226;2023-04-03T03:06:57;-0.50;99.90
27224;DHT22;14965;50.660;13.226;2023-04-03T03:09:23;-0.40;99.90
27224;DHT22;14965;50.660;13.226;2023-04-03T03:11:49;-0.50;99.90
27224;DHT22;14965;50.660;13.226;2023-04-03T03:14:16;-0.50;99.90
27224;DHT22;14965;50.660;13.226;2023-04-03T03:16:42;-0.60;99.90
27224;DHT22;14965;50.660;13.226;2023-04-03T03:19:08;-0.60;99.90
27224;DHT22;14965;50.660;13.226;2023-04-03T03:21:34;-0.60;99.90
27224;DHT22;14965;50.660;13.226;2023-04-03T03:23:59;-0.60;99.90
27224;DHT22;14965;50.660;13.226;2023-04-03T03:26:25;-0.60;99.90
27224;DHT22;14965;50.660;13.226;2023-04-03T03:28:51;-0.70;99.90
27224;DHT22;14965;50.660;13.226;2023-04-03T03:31:19;-0.70;99.90
27224;DHT22;14965;50.660;13.226;2023-04-03T03:33:45;-0.80;99.90
27224;DHT22;14965;50.660;13.226;2023-04-03T03:36:10;-0.80;99.90
27224;DHT22;14965;50.660;13.226;2023-04-03T03:38:36;-0.80;99.90
27224;DHT22;14965;50.660;13.226;2023-04-03T03:41:02;-0.90;99.90
27224;DHT22;14965;50.660;13.226;2023-04-03T03:43:28;-0.90;99.90
27224;DHT22;14965;50.660;13.226;2023-04-03T03:45:54;-0.90;99.90
27224;DHT22;14965;50.660;13.226;2023-04-03T03:48:22;-0.90;99.90
27224;DHT22;14965;50.660;13.226;2023-04-03T03:50:48;-0.90;99.90
27224;DHT22;14965;50.660;13.226;2023-04-03T03:53:14;-0.90;99.90
27224;DHT22;14965;50.660;13.226;2023-04-03T03:55:40;-1.00;99.90
27224;DHT22;14965;50.660;13.226;2023-04-03T03:58:07;-1.00;99.90
27224;DHT22;14965;50.660;13.226;2023-04-03T04:00:32;-1.10;99.90
27224;DHT22;14965;50.660;13.226;2023-04-03T04:02:58;-1.10;99.90
27224;DHT22;14965;50.660;13.226;2023-04-03T04:05:26;-1.20;99.90
27224;DHT22;14965;50.660;13.226;2023-04-03T04:07:52;-1.20;99.90
27224;DHT22;14965;50.660;13.226;2023-04-03T04:10:17;-1.20;99.90
27224;DHT22;14965;50.660;13.226;2023-04-03T04:12:43;-1.20;99.90
27224;DHT22;14965;50.660;13.226;2023-04-03T04:15:09;-1.30;99.90
27224;DHT22;14965;50.660;13.226;2023-04-03T04:17:35;-1.40;99.90
27224;DHT22;14965;50.660;13.226;2023-04-03T04:20:02;-1.40;99.90
27224;DHT22;14965;50.660;13.226;2023-04-03T04:22:29;-1.40;99.90
27224;DHT22;14965;50.660;13.226;2023-04-03T04:24:55;-1.40;99.90
27224;DHT22;14965;50.660;13.226;2023-04-03T04:27:21;-1.40;99.90
27224;DHT22;14965;50.660;13.226;2023-04-03T04:29:47;-1.50;99.90
27224;DHT22;14965;50.660;13.226;2023-04-03T04:32:13;-1.50;99.90
27224;DHT22;14965;50.660;13.226;2023-04-03T04:34:39;-1.50;99.90
27224;DHT22;14965;50.660;13.226;2023-04-03T04:37:04;-1.50;99.90
27224;DHT22;14965;50.660;13.226;2023-04-03T04:39:31;-1.50;99.90
27224;DHT22;14965;50.660;13.226;2023-04-03T04:41:57;-1.50;99.90
27224;DHT22;14965;50.660;13.226;2023-04-03T04:44:23;-1.50;99.90
27224;DHT22;14965;50.660;13.226;2023-04-03T04:46:49;-1.60;99.90
27224;DHT22;14965;50.660;13.226;2023-04-03T04:49:15;-1.60;99.90
27224;DHT22;14965;50.660;13.226;2023-04-03T04:51:40;-1.70;99.90
27224;DHT22;14965;50.660;13.226;2023-04-03T04:54:06;-1.70;99.90
27224;DHT22;14965;50.660;13.226;2023-04-03T04:56:34;-1.70;99.90
27224;DHT22;14965;50.660;13.226;2023-04-03T04:59:00;-1.80;99.90
27224;DHT22;14965;50.660;13.226;2023-04-03T05:01:26;-1.80;99.90
27224;DHT22;14965;50.660;13.226;2023-04-03T05:03:52;-1.80;99.90
27224;DHT22;14965;50.660;13.226;2023-04-03T05:06:18;-1.80;99.90
27224;DHT22;14965;50.660;13.226;2023-04-03T05:08:43;-1.80;99.90
27224;DHT22;14965;50.660;13.226;2023-04-03T05:11:09;-1.80;99.90
27224;DHT22;14965;50.660;13.226;2023-04-03T05:13:37;-1.80;99.90
27224;DHT22;14965;50.660;13.226;2023-04-03T05:16:04;-1.80;99.90
27224;DHT22;14965;50.660;13.226;2023-04-03T05:18:30;-1.80;99.90
27224;DHT22;14965;50.660;13.226;2023-04-03T05:20:55;-1.80;99.90
27224;DHT22;14965;50.660;13.226;2023-04-03T05:23:21;-1.90;99.90
27224;DHT22;14965;50.660;13.226;2023-04-03T05:25:47;-2.00;99.90
27224;DHT22;14965;50.660;13.226;2023-04-03T05:28:13;-2.00;99.90
27224;DHT22;14965;50.660;13.226;2023-04-03T05:30:40;-2.00;99.90
27224;DHT22;14965;50.660;13.226;2023-04-03T05:33:06;-1.90;99.90
27224;DHT22;14965;50.660;13.226;2023-04-03T05:35:32;-1.80;99.90
27224;DHT22;14965;50.660;13.226;2023-04-03T05:37:58;-1.80;99.90
27224;DHT22;14965;50.660;13.226;2023-04-03T05:40:24;-1.90;99.90
27224;DHT22;14965;50.660;13.226;2023-04-03T05:42:50;-1.90;99.90
27224;DHT22;14965;50.660;13.226;2023-04-03T05:45:16;-1.90;99.90
27224;DHT22;14965;50.660;13.226;2023-04-03T05:47:43;-1.90;99.90
27224;DHT22;14965;50.660;13.226;2023-04-03T05:50:09;-1.90;99.90
27224;DHT22;14965;50.660;13.226;2023-04-03T05:52:36;-1.80;99.90
27224;DHT22;14965;50.660;13.226;2023-04-03T05:55:03;-1.80;99.90
27224;DHT22;14965;50.660;13.226;2023-04-03T05:57:29;-1.80;99.90
27224;DHT22;14965;50.660;13.226;2023-04-03T05:59:55;-1.70;99.90
27224;DHT22;14965;50.660;13.226;2023-04-03T06:02:21;-1.70;99.90
27224;DHT22;14965;50.660;13.226;2023-04-03T06:04:50;-1.60;99.90
27224;DHT22;14965;50.660;13.226;2023-04-03T06:07:17;-1.60;99.90
27224;DHT22;14965;50.660;13.226;2023-04-03T06:09:44;-1.60;99.90
27224;DHT22;14965;50.660;13.226;2023-04-03T06:12:10;-1.60;99.90
27224;DHT22;14965;50.660;13.226;2023-04-03T06:14:36;-1.70;99.90
27224;DHT22;14965;50.660;13.226;2023-04-03T06:17:02;-1.80;99.90
27224;DHT22;14965;50.660;13.226;2023-04-03T06:19:28;-1.80;99.90
27224;DHT22;14965;50.660;13.226;2023-04-03T06:21:56;-2.00;99.90
27224;DHT22;14965;50.660;13.226;2023-04-03T06:24:24;-2.00;99.90
27224;DHT22;14965;50.660;13.226;2023-04-03T06:26:50;-1.90;99.90
27224;DHT22;14965;50.660;13.226;2023-04-03T06:29:17;-1.80;99.90
27224;DHT22;14965;50.660;13.226;2023-04-03T06:31:43;-1.70;99.90
27224;DHT22;14965;50.660;13.226;2023-04-03T06:34:08;-1.70;99.90
27224;DHT22;14965;50.660;13.226;2023-04-03T06:36:34;-1.70;99.90
27224;DHT22;14965;50.660;13.226;2023-04-03T06:39:02;-1.70;99.90
27224;DHT22;14965;50.660;13.226;2023-04-03T06:41:28;-1.70;99.90
27224;DHT22;14965;50.660;13.226;2023-04-03T06:43:54;-1.60;99.90
27224;DHT22;14965;50.660;13.226;2023-04-03T06:46:21;-1.50;99.90
27224;DHT22;14965;50.660;13.226;2023-04-03T06:48:48;-1.40;99.90
27224;DHT22;14965;50.660;13.226;2023-04-03T06:51:18;-1.40;99.90
27224;DHT22;14965;50.660;13.226;2023-04-03T06:53:45;-1.40;99.90
27224;DHT22;14965;50.660;13.226;2023-04-03T06:56:13;-1.20;99.90
27224;DHT22;14965;50.660;13.226;2023-04-03T06:58:39;-1.10;99.90
27224;DHT22;14965;50.660;13.226;2023-04-03T07:01:05;-1.20;99.90
27224;DHT22;14965;50.660;13.226;2023-04-03T07:03:30;-1.30;99.90
27224;DHT22;14965;50.660;13.226;2023-04-03T07:05:56;-1.40;99.90
27224;DHT22;14965;50.660;13.226;2023-04-03T07:08:22;-1.40;99.90
27224;DHT22;14965;50.660;13.226;2023-04-03T07:10:48;-1.40;99.90
27224;DHT22;14965;50.660;13.226;2023-04-03T07:13:15;-1.40;99.90
27224;DHT22;14965;50.660;13.226;2023-04-03T07:15:41;-1.40;99.90
27224;DHT22;14965;50.660;13.226;2023-04-03T07:18:07;-1.30;99.90
27224;DHT22;14965;50.660;13.226;2023-04-03T07:20:33;-1.20;99.90
27224;DHT22;14965;50.660;13.226;2023-04-03T07:22:59;-1.00;99.90
27224;DHT22;14965;50.660;13.226;2023-04-03T07:25:24;-0.90;99.90
27224;DHT22;14965;50.660;13.226;2023-04-03T07:27:51;-0.90;99.90
27224;DHT22;14965;50.660;13.226;2023-04-03T07:30:18;-1.00;99.90
27224;DHT22;14965;50.660;13.226;2023-04-03T07:32:44;-1.10;99.90
27224;DHT22;14965;50.660;13.226;2023-04-03T07:35:10;-1.30;99.90
27224;DHT22;14965;50.660;13.226;2023-04-03T07:37:37;-1.40;99.90
27224;DHT22;14965;50.660;13.226;2023-04-03T07:40:04;-1.40;99.90
27224;DHT22;14965;50.660;13.226;2023-04-03T07:42:32;-1.40;99.90
27224;DHT22;14965;50.660;13.226;2023-04-03T07:44:58;-1.40;99.90
27224;DHT22;14965;50.660;13.226;2023-04-03T07:47:26;-1.30;99.90
27224;DHT22;14965;50.660;13.226;2023-04-03T07:49:51;-1.30;99.90
27224;DHT22;14965;50.660;13.226;2023-04-03T07:52:17;-1.30;99.90
27224;DHT22;14965;50.660;13.226;2023-04-03T07:54:44;-1.30;99.90
27224;DHT22;14965;50.660;13.226;2023-04-03T07:57:10;-1.40;99.90
27224;DHT22;14965;50.660;13.226;2023-04-03T07:59:36;-1.30;99.90
27224;DHT22;14965;50.660;13.226;2023-04-03T08:02:02;-1.30;99.90
27224;DHT22;14965;50.660;13.226;2023-04-03T08:04:29;-1.20;99.90
27224;DHT22;14965;50.660;13.226;2023-04-03T08:06:55;-1.30;99.90
27224;DHT22;14965;50.660;13.226;2023-04-03T08:09:20;-1.30;99.90
27224;DHT22;14965;50.660;13.226;2023-04-03T08:11:46;-1.20;99.90
27224;DHT22;14965;50.660;13.226;2023-04-03T08:14:12;-1.20;99.90
27224;DHT22;14965;50.660;13.226;2023-04-03T08:16:38;-1.20;99.90
27224;DHT22;14965;50.660;13.226;2023-04-03T08:19:04;-1.00;99.90
27224;DHT22;14965;50.660;13.226;2023-04-03T08:21:31;-0.90;99.90
27224;DHT22;14965;50.660;13.226;2023-04-03T08:23:57;-1.00;99.90
27224;DHT22;14965;50.660;13.226;2023-04-03T08:26:23;-1.10;99.90
27224;DHT22;14965;50.660;13.226;2023-04-03T08:28:49;-0.90;99.90
27224;DHT22;14965;50.660;13.226;2023-04-03T08:31:16;-0.70;99.90
27224;DHT22;14965;50.660;13.226;2023-04-03T08:33:43;-0.60;99.90
27224;DHT22;14965;50.660;13.226;2023-04-03T08:36:16;-0.40;99.90
27224;DHT22;14965;50.660;13.226;2023-04-03T08:38:44;-0.20;99.90
27224;DHT22;14965;50.660;13.226;2023-04-03T08:41:11;-0.10;99.90
27224;DHT22;14965;50.660;13.226;2023-04-03T08:43:54;0.30;99.90
27224;DHT22;14965;50.660;13.226;2023-04-03T08:46:27;0.50;99.90
27224;DHT22;14965;50.660;13.226;2023-04-03T08:49:06;0.70;99.90
27224;DHT22;14965;50.660;13.226;2023-04-03T08:51:42;0.40;99.90
27224;DHT22;14965;50.660;13.226;2023-04-03T08:54:17;0.10;99.90
27224;DHT22;14965;50.660;13.226;2023-04-03T08:56:50;-0.10;99.90
27224;DHT22;14965;50.660;13.226;2023-04-03T08:59:17;0.00;99.90
27224;DHT22;14965;50.660;13.226;2023-04-03T09:01:49;0.00;99.90
27224;DHT22;14965;50.660;13.226;2023-04-03T09:04:16;-0.20;99.90
27224;DHT22;14965;50.660;13.226;2023-04-03T09:06:42;-0.40;99.90
27224;DHT22;14965;50.660;13.226;2023-04-03T09:09:12;-0.30;99.90
27224;DHT22;14965;50.660;13.226;2023-04-03T09:11:46;-0.30;99.90
27224;DHT22;14965;50.660;13.226;2023-04-03T09:14:19;-0.20;99.90
27224;DHT22;14965;50.660;13.226;2023-04-03T09:16:53;-0.20;99.90
27224;DHT22;14965;50.660;13.226;2023-04-03T09:19:22;-0.10;99.90
27224;DHT22;14965;50.660;13.226;2023-04-03T09:22:02;0.00;99.90
27224;DHT22;14965;50.660;13.226;2023-04-03T09:24:37;-0.10;99.90
27224;DHT22;14965;50.660;13.226;2023-04-03T09:27:05;-0.20;99.90
27224;DHT22;14965;50.660;13.226;2023-04-03T09:29:33;0.10;99.90
27224;DHT22;14965;50.660;13.226;2023-04-03T09:32:11;0.20;99.90
27224;DHT22;14965;50.660;13.226;2023-04-03T09:34:44;0.20;99.90
27224;DHT22;14965;50.660;13.226;2023-04-03T09:37:11;0.30;99.90
27224;DHT22;14965;50.660;13.226;2023-04-03T09:40:01;0.10;99.90
27224;DHT22;14965;50.660;13.226;2023-04-03T09:42:30;0.10;99.90
27224;DHT22;14965;50.660;13.226;2023-04-03T09:44:57;0.30;99.90
27224;DHT22;14965;50.660;13.226;2023-04-03T09:47:25;0.40;99.90
27224;DHT22;14965;50.660;13.226;2023-04-03T09:49:54;0.30;99.90
27224;DHT22;14965;50.660;13.226;2023-04-03T09:52:43;0.30;99.90
27224;DHT22;14965;50.660;13.226;2023-04-03T09:55:13;0.30;99.90
27224;DHT22;14965;50.660;13.226;2023-04-03T09:57:45;0.30;99.90
27224;DHT22;14965;50.660;13.226;2023-04-03T10:00:19;0.20;99.90
27224;DHT22;14965;50.660;13.226;2023-04-03T10:02:48;0.10;99.90
27224;DHT22;14965;50.660;13.226;2023-04-03T10:05:28;0.00;99.90
27224;DHT22;14965;50.660;13.226;2023-04-03T10:08:10;0.30;99.90
27224;DHT22;14965;50.660;13.226;2023-04-03T10:10:45;0.50;99.90
27224;DHT22;14965;50.660;13.226;2023-04-03T10:13:15;0.50;99.90
27224;DHT22;14965;50.660;13.226;2023-04-03T10:15:43;0.50;99.90
27224;DHT22;14965;50.660;13.226;2023-04-03T10:20:59;0.50;99.90
27224;DHT22;14965;50.660;13.226;2023-04-03T10:23:31;0.60;99.90
27224;DHT22;14965;50.660;13.226;2023-04-03T10:26:08;0.80;99.90
27224;DHT22;14965;50.660;13.226;2023-04-03T10:28:45;1.00;99.90
27224;DHT22;14965;50.660;13.226;2023-04-03T10:31:20;1.20;99.90
27224;DHT22;14965;50.660;13.226;2023-04-03T10:33:56;0.90;99.90
27224;DHT22;14965;50.660;13.226;2023-04-03T10:36:29;0.70;99.90
27224;DHT22;14965;50.660;13.226;2023-04-03T10:39:02;0.50;99.90
27224;DHT22;14965;50.660;13.226;2023-04-03T10:41:41;0.70;99.90
27224;DHT22;14965;50.660;13.226;2023-04-03T10:44:23;0.80;99.90
27224;DHT22;14965;50.660;13.226;2023-04-03T10:46:58;0.70;99.90
27224;DHT22;14965;50.660;13.226;2023-04-03T10:49:34;0.80;99.90
27224;DHT22;14965;50.660;13.226;2023-04-03T10:52:10;0.70;99.90
27224;DHT22;14965;50.660;13.226;2023-04-03T10:54:43;0.80;99.90
27224;DHT22;14965;50.660;13.226;2023-04-03T10:57:14;1.00;99.90
27224;DHT22;14965;50.660;13.226;2023-04-03T10:59:43;1.10;99.90
27224;DHT22;14965;50.660;13.226;2023-04-03T11:02:13;1.20;99.90
27224;DHT22;14965;50.660;13.226;2023-04-03T11:04:44;1.20;99.90
27224;DHT22;14965;50.660;13.226;2023-04-03T11:07:15;0.90;99.90
27224;DHT22;14965;50.660;13.226;2023-04-03T11:09:46;0.90;99.90
27224;DHT22;14965;50.660;13.226;2023-04-03T11:12:16;1.10;99.90
27224;DHT22;14965;50.660;13.226;2023-04-03T11:14:48;1.30;99.90
27224;DHT22;14965;50.660;13.226;2023-04-03T11:17:22;1.40;99.90
27224;DHT22;14965;50.660;13.226;2023-04-03T11:19:57;1.40;99.90
27224;DHT22;14965;50.660;13.226;2023-04-03T11:22:27;1.50;99.90
27224;DHT22;14965;50.660;13.226;2023-04-03T11:24:57;1.60;99.90
27224;DHT22;14965;50.660;13.226;2023-04-03T11:27:30;1.70;99.90
27224;DHT22;14965;50.660;13.226;2023-04-03T11:30:07;1.80;99.90
27224;DHT22;14965;50.660;13.226;2023-04-03T11:32:48;1.80;99.90
27224;DHT22;14965;50.660;13.226;2023-04-03T11:35:23;1.50;99.90
27224;DHT22;14965;50.660;13.226;2023-04-03T11:37:51;1.30;99.90
27224;DHT22;14965;50.660;13.226;2023-04-03T11:40:20;1.20;99.90
27224;DHT22;14965;50.660;13.226;2023-04-03T11:42:49;1.10;99.90
27224;DHT22;14965;50.660;13.226;2023-04-03T11:57:22;0.90;99.90
27224;DHT22;14965;50.660;13.226;2023-04-03T12:12:34;1.60;99.90
27224;DHT22;14965;50.660;13.226;2023-04-03T12:15:18;1.30;99.90
27224;DHT22;14965;50.660;13.226;2023-04-03T12:17:48;1.10;99.90
27224;DHT22;14965;50.660;13.226;2023-04-03T12:23:23;1.20;99.90
27224;DHT22;14965;50.660;13.226;2023-04-03T12:25:50;1.20;99.90
27224;DHT22;14965;50.660;13.226;2023-04-03T12:28:18;1.30;99.90
27224;DHT22;14965;50.660;13.226;2023-04-03T12:30:44;1.30;99.90
27224;DHT22;14965;50.660;13.226;2023-04-03T12:33:18;1.40;99.90
27224;DHT22;14965;50.660;13.226;2023-04-03T12:35:54;1.50;99.90
27224;DHT22;14965;50.660;13.226;2023-04-03T12:38:36;1.70;99.90
27224;DHT22;14965;50.660;13.226;2023-04-03T12:41:16;1.90;99.90
27224;DHT22;14965;50.660;13.226;2023-04-03T12:43:50;2.10;99.90
27224;DHT22;14965;50.660;13.226;2023-04-03T12:46:33;2.00;99.90
27224;DHT22;14965;50.660;13.226;2023-04-03T12:49:01;1.90;99.90
27224;DHT22;14965;50.660;13.226;2023-04-03T12:51:39;1.60;99.90
27224;DHT22;14965;50.660;13.226;2023-04-03T12:54:12;1.50;99.90
27224;DHT22;14965;50.660;13.226;2023-04-03T12:56:40;1.60;99.90
27224;DHT22;14965;50.660;13.226;2023-04-03T13:01:53;1.80;99.90
27224;DHT22;14965;50.660;13.226;2023-04-03T13:04:19;1.80;99.90
27224;DHT22;14965;50.660;13.226;2023-04-03T13:06:45;1.80;99.90
27224;DHT22;14965;50.660;13.226;2023-04-03T13:09:19;1.70;99.90
27224;DHT22;14965;50.660;13.226;2023-04-03T13:11:47;1.60;99.90
27224;DHT22;14965;50.660;13.226;2023-04-03T13:14:15;1.40;99.90
27224;DHT22;14965;50.660;13.226;2023-04-03T13:16:53;1.40;99.90
27224;DHT22;14965;50.660;13.226;2023-04-03T13:19:22;1.50;99.90
27224;DHT22;14965;50.660;13.226;2023-04-03T13:21:49;1.70;99.90
27224;DHT22;14965;50.660;13.226;2023-04-03T13:24:17;1.80;99.90
27224;DHT22;14965;50.660;13.226;2023-04-03T13:26:43;1.70;99.90
27224;DHT22;14965;50.660;13.226;2023-04-03T13:29:17;1.50;99.90
27224;DHT22;14965;50.660;13.226;2023-04-03T13:31:47;1.30;99.90
27224;DHT22;14965;50.660;13.226;2023-04-03T13:34:21;1.30;99.90
27224;DHT22;14965;50.660;13.226;2023-04-03T13:36:54;1.30;99.90
27224;DHT22;14965;50.660;13.226;2023-04-03T13:39:24;1.40;99.90
27224;DHT22;14965;50.660;13.226;2023-04-03T13:41:53;1.50;99.90
27224;DHT22;14965;50.660;13.226;2023-04-03T13:44:30;1.60;99.90
27224;DHT22;14965;50.660;13.226;2023-04-03T13:47:13;1.80;99.90
27224;DHT22;14965;50.660;13.226;2023-04-03T13:49:43;1.80;99.90
27224;DHT22;14965;50.660;13.226;2023-04-03T13:52:23;1.80;99.90
27224;DHT22;14965;50.660;13.226;2023-04-03T13:54:52;1.70;99.90
27224;DHT22;14965;50.660;13.226;2023-04-03T13:57:20;1.70;99.90
27224;DHT22;14965;50.660;13.226;2023-04-03T13:59:46;1.70;99.90
27224;DHT22;14965;50.660;13.226;2023-04-03T14:02:17;1.70;99.90
27224;DHT22;14965;50.660;13.226;2023-04-03T14:04:46;1.70;99.90
27224;DHT22;14965;50.660;13.226;2023-04-03T14:07:15;1.70;99.90
27224;DHT22;14965;50.660;13.226;2023-04-03T14:09:42;1.70;99.90
27224;DHT22;14965;50.660;13.226;2023-04-03T14:12:08;1.60;99.90
27224;DHT22;14965;50.660;13.226;2023-04-03T14:14:41;1.50;99.90
27224;DHT22;14965;50.660;13.226;2023-04-03T14:17:10;1.60;99.90
27224;DHT22;14965;50.660;13.226;2023-04-03T14:19:41;1.30;99.90
27224;DHT22;14965;50.660;13.226;2023-04-03T14:22:13;1.20;99.90
27224;DHT22;14965;50.660;13.226;2023-04-03T14:24:40;1.20;99.90
27224;DHT22;14965;50.660;13.226;2023-04-03T14:27:09;1.20;99.90
27224;DHT22;14965;50.660;13.226;2023-04-03T14:29:40;1.20;99.90
27224;DHT22;14965;50.660;13.226;2023-04-03T14:32:06;1.30;99.90
27224;DHT22;14965;50.660;13.226;2023-04-03T14:34:33;1.30;99.90
27224;DHT22;14965;50.660;13.226;2023-04-03T14:37:00;1.40;99.90
27224;DHT22;14965;50.660;13.226;2023-04-03T14:39:25;1.40;99.90
27224;DHT22;14965;50.660;13.226;2023-04-03T14:41:51;1.40;99.90
27224;DHT22;14965;50.660;13.226;2023-04-03T14:44:17;1.50;99.90
27224;DHT22;14965;50.660;13.226;2023-04-03T14:46:43;1.40;99.90
27224;DHT22;14965;50.660;13.226;2023-04-03T14:49:11;1.40;99.90
27224;DHT22;14965;50.660;13.226;2023-04-03T14:51:41;1.30;99.90
27224;DHT22;14965;50.660;13.226;2023-04-03T14:54:10;1.30;99.90
27224;DHT22;14965;50.660;13.226;2023-04-03T14:56:38;1.20;99.90
27224;DHT22;14965;50.660;13.226;2023-04-03T14:59:04;1.20;99.90
27224;DHT22;14965;50.660;13.226;2023-04-03T15:01:35;1.40;99.90
27224;DHT22;14965;50.660;13.226;2023-04-03T15:04:00;1.50;99.90
27224;DHT22;14965;50.660;13.226;2023-04-03T15:06:26;1.60;99.90
27224;DHT22;14965;50.660;13.226;2023-04-03T15:08:53;1.60;99.90
27224;DHT22;14965;50.660;13.226;2023-04-03T15:11:19;1.60;99.90
27224;DHT22;14965;50.660;13.226;2023-04-03T15:13:45;1.50;99.90
27224;DHT22;14965;50.660;13.226;2023-04-03T15:16:12;1.40;99.90
27224;DHT22;14965;50.660;13.226;2023-04-03T15:18:42;1.40;99.90
27224;DHT22;14965;50.660;13.226;2023-04-03T15:21:09;1.40;99.90
27224;DHT22;14965;50.660;13.226;2023-04-03T15:23:35;1.40;99.90
27224;DHT22;14965;50.660;13.226;2023-04-03T15:26:02;1.50;99.90
27224;DHT22;14965;50.660;13.226;2023-04-03T15:28:30;1.50;99.90
27224;DHT22;14965;50.660;13.226;2023-04-03T15:30:58;1.60;99.90
27224;DHT22;14965;50.660;13.226;2023-04-03T15:33:24;1.40;99.90
27224;DHT22;14965;50.660;13.226;2023-04-03T15:35:51;1.30;99.90
27224;DHT22;14965;50.660;13.226;2023-04-03T15:38:17;1.30;99.90
27224;DHT22;14965;50.660;13.226;2023-04-03T15:40:43;1.20;99.90
27224;DHT22;14965;50.660;13.226;2023-04-03T15:43:10;1.10;99.90
27224;DHT22;14965;50.660;13.226;2023-04-03T15:45:36;1.00;99.90
27224;DHT22;14965;50.660;13.226;2023-04-03T15:48:03;1.00;99.90
27224;DHT22;14965;50.660;13.226;2023-04-03T15:50:30;1.00;99.90
27224;DHT22;14965;50.660;13.226;2023-04-03T15:52:57;1.00;99.90
27224;DHT22;14965;50.660;13.226;2023-04-03T15:55:24;0.90;99.90
27224;DHT22;14965;50.660;13.226;2023-04-03T15:57:50;1.00;99.90
27224;DHT22;14965;50.660;13.226;2023-04-03T16:00:18;0.90;99.90
27224;DHT22;14965;50.660;13.226;2023-04-03T16:02:46;0.90;99.90
27224;DHT22;14965;50.660;13.226;2023-04-03T16:05:13;1.00;99.90
27224;DHT22;14965;50.660;13.226;2023-04-03T16:07:40;1.00;99.90